createdAt,value
2023-01-09T00:00:09.016Z,6.50
2023-01-09T00:02:57.364Z,6.53
2023-01-09T00:05:26.228Z,6.55
2023-01-09T00:07:54.659Z,6.45
2023-01-09T00:10:23.101Z,6.41
2023-01-09T00:12:51.700Z,6.32
2023-01-09T00:15:20.286Z,6.42
2023-01-09T00:17:49.199Z,6.45
2023-01-09T00:20:17.413Z,6.42
2023-01-09T00:22:46.155Z,6.39
2023-01-09T00:25:14.504Z,6.37
2023-01-09T00:27:42.806Z,6.41
2023-01-09T00:30:12.863Z,6.43
2023-01-09T00:32:41.433Z,6.36
2023-01-09T00:35:15.244Z,6.30
2023-01-09T00:37:44.012Z,6.35
2023-01-09T00:40:15.506Z,6.37
2023-01-09T00:42:46.043Z,6.39
2023-01-09T00:45:19.359Z,6.32
2023-01-09T00:47:49.988Z,6.31
2023-01-09T00:50:22.957Z,6.25
2023-01-09T00:52:56.055Z,6.29
2023-01-09T00:55:24.537Z,6.21
2023-01-09T00:57:53.738Z,6.26
2023-01-09T01:00:22.283Z,6.24
2023-01-09T01:02:50.736Z,6.19
2023-01-09T01:05:37.448Z,6.13
2023-01-09T01:08:12.015Z,6.11
2023-01-09T01:10:41.143Z,6.19
2023-01-09T01:13:10.605Z,6.14
2023-01-09T01:15:40.959Z,6.04
2023-01-09T01:18:10.208Z,6.10
2023-01-09T01:20:40.557Z,6.09
2023-01-09T01:23:09.545Z,6.09
2023-01-09T01:25:38.758Z,6.09
2023-01-09T01:28:07.378Z,6.02
2023-01-09T01:30:39.169Z,6.01
2023-01-09T01:33:08.552Z,5.99
2023-01-09T01:35:37.729Z,5.89
2023-01-09T01:38:06.063Z,5.95
2023-01-09T01:40:34.316Z,5.90
2023-01-09T01:43:02.655Z,5.85
2023-01-09T01:45:32.456Z,5.79
2023-01-09T01:48:05.566Z,5.78
2023-01-09T01:50:38.424Z,5.84
2023-01-09T01:53:13.002Z,5.81
2023-01-09T01:55:48.158Z,5.84
2023-01-09T01:58:16.546Z,5.80
2023-01-09T02:00:47.352Z,5.79
2023-01-09T02:03:19.227Z,5.74
2023-01-09T02:05:48.581Z,5.74
2023-01-09T02:08:17.814Z,5.70
2023-01-09T02:10:47.298Z,5.78
2023-01-09T02:13:16.000Z,5.80
2023-01-09T02:15:58.526Z,5.72
2023-01-09T02:18:46.402Z,5.63
2023-01-09T02:21:24.315Z,5.71
2023-01-09T02:24:42.338Z,5.73
2023-01-09T02:27:33.180Z,5.69
2023-01-09T02:30:30.930Z,5.66
2023-01-09T02:33:31.755Z,5.66
2023-01-09T02:36:11.250Z,5.67
2023-01-09T02:38:53.748Z,5.61
2023-01-09T02:41:29.422Z,5.59
2023-01-09T02:44:17.817Z,5.65
2023-01-09T02:46:47.289Z,5.67
2023-01-09T02:49:17.575Z,5.60
2023-01-09T02:51:52.523Z,5.52
2023-01-09T02:54:34.937Z,5.53
2023-01-09T02:57:20.739Z,5.47
2023-01-09T03:00:03.576Z,5.55
2023-01-09T03:02:36.926Z,5.45
2023-01-09T03:05:09.503Z,5.42
2023-01-09T03:07:43.458Z,5.38
2023-01-09T03:10:19.505Z,5.36
2023-01-09T03:12:52.538Z,5.39
2023-01-09T03:15:25.180Z,5.33
2023-01-09T03:17:54.399Z,5.27
2023-01-09T03:20:26.920Z,5.25
2023-01-09T03:22:57.473Z,5.28
2023-01-09T03:25:27.622Z,5.26
2023-01-09T03:27:58.851Z,5.21
2023-01-09T03:30:28.938Z,5.16
2023-01-09T03:32:57.726Z,5.22
2023-01-09T03:35:26.461Z,5.09
2023-01-09T03:37:54.955Z,5.04
2023-01-09T03:40:23.247Z,5.06
2023-01-09T03:42:51.569Z,5.07
2023-01-09T03:45:20.160Z,5.06
2023-01-09T03:47:48.631Z,5.09
2023-01-09T03:50:17.357Z,5.03
2023-01-09T03:52:45.905Z,5.02
2023-01-09T03:55:15.716Z,4.99
2023-01-09T03:57:44.095Z,5.04
2023-01-09T04:00:14.550Z,4.96
2023-01-09T04:02:43.538Z,5.01
2023-01-09T04:05:11.875Z,5.04
2023-01-09T04:07:40.485Z,5.02
2023-01-09T04:10:11.463Z,4.94
2023-01-09T04:12:40.218Z,4.97
2023-01-09T04:15:10.277Z,4.93
2023-01-09T04:17:38.726Z,4.91
2023-01-09T04:20:09.940Z,4.92
2023-01-09T04:22:38.228Z,4.95
2023-01-09T04:25:07.934Z,4.96
2023-01-09T04:27:36.258Z,4.92
2023-01-09T04:30:06.868Z,4.90
2023-01-09T04:32:35.252Z,4.93
2023-01-09T04:35:05.380Z,4.89
2023-01-09T04:37:35.981Z,4.84
2023-01-09T04:40:07.354Z,4.85
2023-01-09T04:42:35.652Z,4.86
2023-01-09T04:45:04.868Z,4.93
2023-01-09T04:47:33.742Z,4.90
2023-01-09T04:50:02.392Z,4.78
2023-01-09T04:52:30.988Z,4.71
2023-01-09T04:54:59.287Z,4.64
2023-01-09T04:57:27.932Z,4.72
2023-01-09T04:59:56.251Z,4.80
2023-01-09T05:02:24.575Z,4.82
2023-01-09T05:04:53.179Z,4.88
2023-01-09T05:07:22.316Z,4.91
2023-01-09T05:09:50.716Z,4.91
2023-01-09T05:12:19.076Z,4.88
2023-01-09T05:14:47.400Z,4.85
2023-01-09T05:17:15.625Z,4.82
2023-01-09T05:19:44.991Z,4.84
2023-01-09T05:22:13.617Z,4.84
2023-01-09T05:24:42.100Z,4.83
2023-01-09T05:27:10.384Z,4.79
2023-01-09T05:29:38.824Z,4.81
2023-01-09T05:32:07.130Z,4.84
2023-01-09T05:34:35.476Z,4.86
2023-01-09T05:37:04.003Z,4.84
2023-01-09T05:39:32.503Z,4.78
2023-01-09T05:42:00.799Z,4.85
2023-01-09T05:44:29.067Z,4.94
2023-01-09T05:46:57.305Z,4.84
2023-01-09T05:49:25.702Z,4.80
2023-01-09T05:51:53.963Z,4.77
2023-01-09T05:54:22.457Z,4.84
2023-01-09T05:56:50.773Z,4.77
2023-01-09T05:59:19.489Z,4.72
2023-01-09T06:01:48.703Z,4.81
2023-01-09T06:04:17.429Z,4.83
2023-01-09T06:06:45.686Z,4.79
2023-01-09T06:09:14.138Z,4.74
2023-01-09T06:11:42.564Z,4.80
2023-01-09T06:14:10.825Z,4.74
2023-01-09T06:16:39.128Z,4.55
2023-01-09T06:19:07.714Z,4.50
2023-01-09T06:21:36.973Z,4.38
2023-01-09T06:24:07.032Z,4.45
2023-01-09T06:26:35.387Z,4.42
2023-01-09T06:29:03.820Z,4.44
2023-01-09T06:31:32.872Z,4.50
2023-01-09T06:34:01.501Z,4.43
2023-01-09T06:36:29.966Z,4.37
2023-01-09T06:38:58.421Z,4.41
2023-01-09T06:41:27.353Z,4.44
2023-01-09T06:43:55.766Z,4.51
2023-01-09T06:46:24.138Z,4.51
2023-01-09T06:48:52.540Z,4.58
2023-01-09T06:51:20.873Z,4.46
2023-01-09T06:53:49.733Z,4.59
2023-01-09T06:56:19.379Z,4.59
2023-01-09T06:58:48.062Z,4.56
2023-01-09T07:01:16.554Z,4.63
2023-01-09T07:03:44.995Z,4.60
2023-01-09T07:06:13.648Z,4.58
2023-01-09T07:08:41.997Z,4.56
2023-01-09T07:11:10.347Z,4.51
2023-01-09T07:13:38.972Z,4.41
2023-01-09T07:16:08.463Z,4.45
2023-01-09T07:18:36.815Z,4.56
2023-01-09T07:21:06.967Z,4.50
2023-01-09T07:23:35.317Z,4.47
2023-01-09T07:26:04.480Z,4.41
2023-01-09T07:28:32.877Z,4.38
2023-01-09T07:31:01.995Z,4.39
2023-01-09T07:33:30.519Z,4.48
2023-01-09T07:36:01.960Z,4.36
2023-01-09T07:38:31.535Z,4.51
2023-01-09T07:41:00.254Z,4.56
2023-01-09T07:43:28.978Z,4.61
2023-01-09T07:45:57.563Z,4.63
2023-01-09T07:48:26.020Z,4.62
2023-01-09T07:50:55.069Z,4.70
2023-01-09T07:53:23.450Z,4.66
2023-01-09T07:55:51.949Z,4.69
2023-01-09T07:58:20.313Z,4.68
2023-01-09T08:00:49.760Z,4.78
2023-01-09T08:03:18.678Z,4.74
2023-01-09T08:05:47.010Z,4.64
2023-01-09T08:08:15.293Z,4.62
2023-01-09T08:10:43.744Z,4.69
2023-01-09T08:13:12.237Z,4.66
2023-01-09T08:15:41.099Z,4.66
2023-01-09T08:18:09.816Z,4.73
2023-01-09T08:20:38.175Z,4.79
2023-01-09T08:23:06.516Z,4.70
2023-01-09T08:25:34.899Z,4.67
2023-01-09T08:28:05.651Z,4.74
2023-01-09T08:30:33.933Z,4.79
2023-01-09T08:33:02.307Z,4.85
2023-01-09T08:35:31.250Z,4.89
2023-01-09T08:38:00.381Z,4.83
2023-01-09T08:40:28.851Z,4.81
2023-01-09T08:43:15.683Z,4.67
2023-01-09T08:46:14.763Z,4.56
2023-01-09T08:48:43.697Z,4.67
2023-01-09T08:51:12.175Z,4.76
2023-01-09T08:53:41.023Z,4.80
2023-01-09T08:56:09.660Z,4.76
2023-01-09T08:58:38.102Z,4.86
2023-01-09T09:01:08.154Z,4.93
2023-01-09T09:03:36.476Z,4.89
2023-01-09T09:06:08.531Z,4.80
2023-01-09T09:08:37.068Z,4.82
2023-01-09T09:11:05.991Z,4.74
2023-01-09T09:13:34.857Z,4.96
2023-01-09T09:16:10.239Z,5.02
2023-01-09T09:18:38.683Z,5.01
2023-01-09T09:21:07.144Z,5.05
2023-01-09T09:23:35.423Z,4.99
2023-01-09T09:26:04.205Z,5.01
2023-01-09T09:28:32.539Z,5.06
2023-01-09T09:31:00.995Z,5.10
2023-01-09T09:33:29.776Z,5.09
2023-01-09T09:35:59.955Z,5.07
2023-01-09T09:38:28.560Z,5.06
2023-01-09T09:41:37.962Z,5.13
2023-01-09T09:44:38.076Z,5.12
2023-01-09T09:47:18.522Z,5.20
2023-01-09T09:49:59.907Z,5.13
2023-01-09T09:52:37.602Z,5.17
2023-01-09T09:55:17.578Z,5.14
2023-01-09T09:57:48.073Z,5.13
2023-01-09T10:00:21.064Z,5.15
2023-01-09T10:02:55.591Z,5.12
2023-01-09T10:05:27.952Z,5.02
2023-01-09T10:08:14.896Z,5.09
2023-01-09T10:10:50.891Z,5.18
2023-01-09T10:13:42.041Z,5.14
2023-01-09T10:16:28.249Z,5.14
2023-01-09T10:19:08.445Z,5.08
2023-01-09T10:21:42.362Z,5.06
2023-01-09T10:24:32.665Z,5.11
2023-01-09T10:27:09.804Z,5.18
2023-01-09T10:29:48.026Z,5.26
2023-01-09T10:32:35.751Z,5.30
2023-01-09T10:35:22.724Z,5.30
2023-01-09T10:37:55.587Z,5.24
2023-01-09T10:40:29.316Z,5.31
2023-01-09T10:43:02.019Z,5.41
2023-01-09T10:45:32.410Z,5.32
2023-01-09T10:48:05.849Z,5.30
2023-01-09T10:50:39.569Z,5.30
2023-01-09T10:53:19.766Z,5.36
2023-01-09T10:55:51.638Z,5.45
2023-01-09T10:58:21.831Z,5.49
2023-01-09T11:00:51.344Z,5.53
2023-01-09T11:03:22.666Z,5.55
2023-01-09T11:05:53.538Z,5.54
2023-01-09T11:08:27.607Z,5.56
2023-01-09T11:10:58.033Z,5.49
2023-01-09T11:13:29.081Z,5.53
2023-01-09T11:16:07.233Z,5.57
2023-01-09T11:18:40.282Z,5.56
2023-01-09T11:21:30.760Z,5.53
2023-01-09T11:24:26.706Z,5.68
2023-01-09T11:27:22.636Z,5.77
2023-01-09T11:30:21.711Z,5.81
2023-01-09T11:32:50.153Z,5.75
2023-01-09T11:35:26.727Z,5.80
2023-01-09T11:38:14.998Z,5.85
2023-01-09T11:40:49.509Z,5.87
2023-01-09T11:43:34.059Z,5.91
2023-01-09T11:46:05.619Z,5.93
2023-01-09T11:48:39.706Z,5.98
2023-01-09T11:51:20.660Z,6.02
2023-01-09T11:54:06.901Z,6.00
2023-01-09T11:56:37.499Z,5.98
2023-01-09T11:59:12.316Z,6.00
2023-01-09T12:01:58.236Z,6.02
2023-01-09T12:04:33.564Z,6.02
2023-01-09T12:07:54.764Z,5.94
2023-01-09T12:10:42.497Z,6.04
2023-01-09T12:13:21.577Z,6.08
2023-01-09T12:15:58.323Z,6.11
2023-01-09T12:18:44.235Z,6.12
2023-01-09T12:21:25.152Z,6.19
2023-01-09T12:24:10.713Z,6.21
2023-01-09T12:26:48.553Z,6.22
2023-01-09T12:29:39.214Z,6.27
2023-01-09T12:32:23.573Z,6.25
2023-01-09T12:35:02.840Z,6.23
2023-01-09T12:37:58.570Z,6.17
2023-01-09T12:40:41.027Z,6.10
2023-01-09T12:43:19.657Z,6.20
2023-01-09T12:46:00.731Z,6.22
2023-01-09T12:48:50.270Z,6.23
2023-01-09T12:51:30.987Z,6.30
2023-01-09T12:54:05.497Z,6.31
2023-01-09T12:56:38.099Z,6.30
2023-01-09T12:59:17.647Z,6.35
2023-01-09T13:01:48.555Z,6.37
2023-01-09T13:04:23.976Z,6.44
2023-01-09T13:07:00.536Z,6.44
2023-01-09T13:09:38.158Z,6.42
2023-01-09T13:12:11.938Z,6.42
2023-01-09T13:14:53.311Z,6.41
2023-01-09T13:17:27.911Z,6.29
2023-01-09T13:19:56.440Z,6.24
2023-01-09T13:22:28.358Z,6.25
2023-01-09T13:25:32.168Z,6.19
2023-01-09T13:28:04.858Z,6.19
2023-01-09T13:30:50.445Z,6.24
2023-01-09T13:33:23.641Z,6.26
2023-01-09T13:35:52.798Z,6.29
2023-01-09T13:38:23.613Z,6.19
2023-01-09T13:41:20.420Z,6.27
2023-01-09T13:43:57.895Z,6.19
2023-01-09T13:46:38.925Z,6.18
2023-01-09T13:49:28.584Z,6.22
2023-01-09T13:52:00.540Z,6.26
2023-01-09T13:55:20.712Z,6.31
2023-01-09T13:58:26.311Z,6.29
2023-01-09T14:00:58.911Z,6.35
2023-01-09T14:03:32.217Z,6.43
2023-01-09T14:06:19.045Z,6.40
2023-01-09T14:09:04.468Z,6.37
2023-01-09T14:11:33.171Z,6.43
2023-01-09T14:14:06.262Z,6.45
2023-01-09T14:16:37.621Z,6.40
2023-01-09T14:19:20.465Z,6.37
2023-01-09T14:21:53.083Z,6.42
2023-01-09T14:24:26.580Z,6.42
2023-01-09T14:26:57.710Z,6.44
2023-01-09T14:29:42.689Z,6.42
2023-01-09T14:32:43.200Z,6.46
2023-01-09T14:35:17.840Z,6.50
2023-01-09T14:37:55.349Z,6.50
2023-01-09T14:40:23.756Z,6.45
2023-01-09T14:42:57.918Z,6.47
2023-01-09T14:45:27.506Z,6.46
2023-01-09T14:48:00.197Z,6.56
2023-01-09T14:50:31.699Z,6.58
2023-01-09T14:53:06.258Z,6.60
2023-01-09T14:55:43.071Z,6.38
2023-01-09T14:58:18.884Z,6.40
2023-01-09T15:00:50.991Z,6.45
2023-01-09T15:03:21.552Z,6.43
2023-01-09T15:05:52.363Z,6.53
2023-01-09T15:08:24.948Z,6.52
2023-01-09T15:10:56.840Z,6.53
2023-01-09T15:13:31.288Z,6.59
2023-01-09T15:16:02.406Z,6.61
2023-01-09T15:18:41.016Z,6.65
2023-01-09T15:21:19.569Z,6.67
2023-01-09T15:23:48.088Z,6.62
2023-01-09T15:26:25.803Z,6.58
2023-01-09T15:29:01.849Z,6.64
2023-01-09T15:31:30.627Z,6.66
2023-01-09T15:34:02.875Z,6.62
2023-01-09T15:36:31.469Z,6.64
2023-01-09T15:39:00.725Z,6.71
2023-01-09T15:41:49.842Z,6.74
2023-01-09T15:44:29.599Z,6.74
2023-01-09T15:47:00.505Z,6.71
2023-01-09T15:49:29.663Z,6.76
2023-01-09T15:51:58.515Z,6.78
2023-01-09T15:54:29.930Z,6.72
2023-01-09T15:57:34.674Z,6.74
2023-01-09T16:00:31.252Z,6.77
2023-01-09T16:03:10.170Z,6.78
2023-01-09T16:05:43.560Z,6.77
2023-01-09T16:08:28.963Z,6.75
2023-01-09T16:11:04.320Z,6.77
2023-01-09T16:13:42.426Z,6.75
2023-01-09T16:16:12.245Z,6.79
2023-01-09T16:18:51.392Z,6.79
2023-01-09T16:21:31.101Z,6.80
2023-01-09T16:24:02.893Z,6.80
2023-01-09T16:26:31.869Z,6.77
2023-01-09T16:29:27.287Z,6.75
2023-01-09T16:32:03.135Z,6.75
2023-01-09T16:34:33.177Z,6.81
2023-01-09T16:37:02.386Z,6.80
2023-01-09T16:39:31.425Z,6.75
2023-01-09T16:42:18.742Z,6.77
2023-01-09T16:44:47.097Z,6.70
2023-01-09T16:47:15.484Z,6.61
2023-01-09T16:49:43.826Z,6.72
2023-01-09T16:52:17.198Z,6.79
2023-01-09T16:54:46.805Z,6.79
2023-01-09T16:57:18.271Z,6.81
2023-01-09T16:59:47.396Z,6.88
2023-01-09T17:02:19.434Z,6.89
2023-01-09T17:04:47.885Z,6.93
2023-01-09T17:07:18.681Z,6.96
2023-01-09T17:09:47.939Z,6.96
2023-01-09T17:12:20.031Z,6.98
2023-01-09T17:14:49.028Z,6.97
2023-01-09T17:17:18.691Z,6.97
2023-01-09T17:19:47.326Z,6.95
2023-01-09T17:22:15.907Z,6.97
2023-01-09T17:25:02.581Z,6.97
2023-01-09T17:27:52.759Z,6.99
2023-01-09T17:30:21.999Z,6.99
2023-01-09T17:32:51.311Z,6.94
2023-01-09T17:35:19.929Z,6.92
2023-01-09T17:37:48.618Z,6.88
2023-01-09T17:40:21.277Z,6.91
2023-01-09T17:42:48.945Z,6.90
2023-01-09T17:45:17.457Z,6.92
2023-01-09T17:47:45.843Z,6.95
2023-01-09T17:50:19.074Z,6.92
2023-01-09T17:52:47.816Z,6.90
2023-01-09T17:55:16.286Z,6.88
2023-01-09T17:57:44.905Z,6.91
2023-01-09T18:00:24.523Z,6.90
2023-01-09T18:02:53.269Z,6.93
2023-01-09T18:05:22.417Z,6.90
2023-01-09T18:07:51.097Z,6.84
2023-01-09T18:10:22.919Z,6.82
2023-01-09T18:12:53.234Z,6.83
2023-01-09T18:15:23.827Z,6.80
2023-01-09T18:17:52.773Z,6.77
2023-01-09T18:20:21.081Z,6.78
2023-01-09T18:22:49.451Z,6.77
2023-01-09T18:25:18.115Z,6.72
2023-01-09T18:27:46.354Z,6.60
2023-01-09T18:30:15.011Z,6.46
2023-01-09T18:32:43.351Z,6.41
2023-01-09T18:35:12.304Z,6.35
2023-01-09T18:37:40.714Z,6.34
2023-01-09T18:40:11.947Z,6.25
2023-01-09T18:42:41.498Z,6.25
2023-01-09T18:45:10.986Z,6.28
2023-01-09T18:47:40.893Z,6.25
2023-01-09T18:50:12.324Z,6.20
2023-01-09T18:52:40.826Z,6.14
2023-01-09T18:55:10.236Z,6.12
2023-01-09T18:57:54.686Z,6.11
2023-01-09T19:00:23.370Z,6.17
2023-01-09T19:02:54.644Z,6.19
2023-01-09T19:05:25.346Z,6.17
2023-01-09T19:07:53.776Z,6.18
2023-01-09T19:10:22.249Z,6.31
2023-01-09T19:12:50.854Z,6.29
2023-01-09T19:15:19.903Z,6.24
2023-01-09T19:17:49.764Z,6.13
2023-01-09T19:20:18.771Z,6.09
2023-01-09T19:22:47.357Z,6.14
2023-01-09T19:25:16.319Z,6.05
2023-01-09T19:27:48.690Z,6.05
2023-01-09T19:30:18.364Z,6.09
2023-01-09T19:32:46.763Z,6.17
2023-01-09T19:35:16.733Z,6.22
2023-01-09T19:37:45.310Z,6.23
2023-01-09T19:40:14.424Z,6.21
2023-01-09T19:42:42.680Z,6.24
2023-01-09T19:45:11.825Z,6.21
2023-01-09T19:47:40.624Z,6.21
2023-01-09T19:50:11.595Z,6.18
2023-01-09T19:52:42.613Z,6.16
2023-01-09T19:55:13.188Z,6.13
2023-01-09T19:57:42.169Z,6.11
2023-01-09T20:00:13.321Z,6.13
2023-01-09T20:02:41.962Z,6.11
2023-01-09T20:05:10.913Z,6.08
2023-01-09T20:07:39.354Z,6.04
2023-01-09T20:10:10.099Z,6.01
2023-01-09T20:12:38.602Z,6.02
2023-01-09T20:15:14.075Z,5.89
2023-01-09T20:17:43.288Z,5.92
2023-01-09T20:20:12.668Z,5.90
2023-01-09T20:22:41.003Z,5.87
2023-01-09T20:25:10.352Z,5.87
2023-01-09T20:27:39.287Z,5.91
2023-01-09T20:30:11.164Z,5.91
2023-01-09T20:32:39.685Z,5.94
2023-01-09T20:35:09.757Z,5.91
2023-01-09T20:37:39.939Z,5.90
2023-01-09T20:40:11.440Z,5.92
2023-01-09T20:42:39.936Z,5.91
2023-01-09T20:45:09.704Z,5.88
2023-01-09T20:47:38.553Z,5.91
2023-01-09T20:50:09.390Z,5.86
2023-01-09T20:52:38.475Z,5.89
2023-01-09T20:55:08.109Z,5.67
2023-01-09T20:57:36.925Z,5.73
2023-01-09T21:00:07.627Z,5.64
2023-01-09T21:02:36.072Z,5.78
2023-01-09T21:05:07.152Z,5.87
2023-01-09T21:07:38.781Z,5.94
2023-01-09T21:10:09.406Z,5.98
2023-01-09T21:12:38.627Z,6.30
2023-01-09T21:15:14.461Z,6.17
2023-01-09T21:17:43.458Z,6.13
2023-01-09T21:20:15.276Z,6.15
2023-01-09T21:22:43.706Z,6.12
2023-01-09T21:25:16.028Z,6.05
2023-01-09T21:27:45.513Z,5.98
2023-01-09T21:30:14.702Z,5.93
2023-01-09T21:32:43.450Z,5.95
2023-01-09T21:35:12.212Z,5.92
2023-01-09T21:37:41.963Z,5.73
2023-01-09T21:40:16.033Z,5.75
2023-01-09T21:43:03.882Z,5.78
2023-01-09T21:45:51.526Z,5.86
2023-01-09T21:48:20.339Z,5.92
2023-01-09T21:50:49.841Z,6.05
2023-01-09T21:53:18.829Z,6.14
2023-01-09T21:55:47.117Z,6.21
2023-01-09T21:58:16.686Z,6.23
2023-01-09T22:00:45.224Z,6.20
2023-01-09T22:03:18.224Z,6.23
2023-01-09T22:05:47.525Z,6.26
2023-01-09T22:08:16.064Z,6.17
2023-01-09T22:10:45.123Z,6.11
2023-01-09T22:13:17.024Z,6.19
2023-01-09T22:15:46.785Z,6.25
2023-01-09T22:18:15.121Z,6.31
2023-01-09T22:20:45.251Z,6.34
2023-01-09T22:23:14.098Z,6.34
2023-01-09T22:25:42.372Z,6.39
2023-01-09T22:28:10.839Z,6.25
2023-01-09T22:30:41.265Z,6.23
2023-01-09T22:33:10.553Z,6.30
2023-01-09T22:35:40.563Z,6.31
2023-01-09T22:38:10.290Z,6.31
2023-01-09T22:40:39.563Z,6.27
2023-01-09T22:43:07.984Z,6.28
2023-01-09T22:45:36.570Z,6.31
2023-01-09T22:48:06.078Z,6.31
2023-01-09T22:50:34.558Z,6.34
2023-01-09T22:53:03.110Z,6.33
2023-01-09T22:55:31.849Z,6.22
2023-01-09T22:58:00.233Z,6.19
2023-01-09T23:00:28.683Z,6.20
2023-01-09T23:02:57.253Z,6.15
2023-01-09T23:05:25.953Z,6.16
2023-01-09T23:07:54.204Z,6.19
2023-01-09T23:10:22.604Z,6.12
2023-01-09T23:12:50.946Z,5.95
2023-01-09T23:15:19.397Z,6.08
2023-01-09T23:17:47.967Z,6.06
2023-01-09T23:20:16.969Z,6.12
2023-01-09T23:22:45.501Z,6.16
2023-01-09T23:25:15.608Z,6.23
2023-01-09T23:27:44.210Z,6.25
2023-01-09T23:30:14.007Z,6.24
2023-01-09T23:32:43.557Z,6.22
2023-01-09T23:35:12.048Z,6.25
2023-01-09T23:37:40.416Z,6.29
2023-01-09T23:40:11.307Z,6.30
2023-01-09T23:43:06.482Z,6.32
2023-01-09T23:45:35.927Z,6.35
2023-01-09T23:48:06.321Z,6.34
2023-01-09T23:50:35.034Z,6.37
2023-01-09T23:53:03.447Z,6.35
2023-01-09T23:55:32.123Z,6.36
2023-01-09T23:58:00.804Z,6.35
